AVA158 SEQM-SKRG
Flight info
| Callsign | AVA158 |
|---|---|
| Flight time | 1h 4m |
| Altitude | 36000 |
| Route | ARNOK3A ARNOK UP778 BOKAN UQ113 ULQ/N0382F230 W3 ISVON ISVON4A |
| Aircraft | A319/M-SDE3FGHIRWY/LB1 |
Departure
| Time | 2026-05-07 17:16 |
|---|---|
| Airport | Mariscal Sucre International Airport (SEQM) |
Arrival
| Time | 2026-05-07 18:20 |
|---|---|
| Airport | Jose Maria Córdova International Airport (SKRG) |
| Time | Latitude | Longitude | Altitude | Speed | Heading |
|---|---|---|---|---|---|
| 2026-05-07 16:42 | -0.12370 | -78.35934 | 7835 ft | 0 kts | 267° |
| 2026-05-07 17:06 | -0.12370 | -78.35930 | 7842 ft | 3 kts | 266° |
| 2026-05-07 17:06 | -0.12368 | -78.35904 | 7826 ft | 4 kts | 265° |
| 2026-05-07 17:06 | -0.12366 | -78.35877 | 7837 ft | 4 kts | 260° |
| 2026-05-07 17:06 | -0.12358 | -78.35852 | 7838 ft | 4 kts | 231° |
| 2026-05-07 17:07 | -0.12346 | -78.35843 | 7841 ft | 0 kts | 176° |
| 2026-05-07 17:08 | -0.12370 | -78.35842 | 7838 ft | 7 kts | 177° |
| 2026-05-07 17:09 | -0.12441 | -78.35839 | 7842 ft | 13 kts | 178° |
| 2026-05-07 17:09 | -0.12549 | -78.35835 | 7843 ft | 17 kts | 177° |
| 2026-05-07 17:09 | -0.12678 | -78.35819 | 7836 ft | 20 kts | 150° |
| 2026-05-07 17:09 | -0.12692 | -78.35693 | 7850 ft | 18 kts | 87° |
| 2026-05-07 17:10 | -0.12714 | -78.35605 | 7863 ft | 11 kts | 150° |
| 2026-05-07 17:10 | -0.12784 | -78.35598 | 7865 ft | 10 kts | 178° |
| 2026-05-07 17:10 | -0.12853 | -78.35595 | 7867 ft | 11 kts | 177° |
| 2026-05-07 17:10 | -0.12932 | -78.35592 | 7871 ft | 12 kts | 177° |
| 2026-05-07 17:11 | -0.13014 | -78.35588 | 7873 ft | 12 kts | 177° |
| 2026-05-07 17:11 | -0.13095 | -78.35584 | 7878 ft | 11 kts | 178° |
| 2026-05-07 17:11 | -0.13174 | -78.35581 | 7882 ft | 12 kts | 178° |
| 2026-05-07 17:11 | -0.13258 | -78.35578 | 7884 ft | 13 kts | 177° |
| 2026-05-07 17:12 | -0.13356 | -78.35573 | 7885 ft | 16 kts | 177° |
| 2026-05-07 17:12 | -0.13472 | -78.35568 | 7887 ft | 18 kts | 178° |
| 2026-05-07 17:12 | -0.13600 | -78.35564 | 7892 ft | 19 kts | 177° |
| 2026-05-07 17:12 | -0.13731 | -78.35559 | 7896 ft | 19 kts | 178° |
| 2026-05-07 17:13 | -0.13875 | -78.35554 | 7898 ft | 22 kts | 177° |
| 2026-05-07 17:13 | -0.14030 | -78.35545 | 7904 ft | 22 kts | 176° |
| 2026-05-07 17:13 | -0.14181 | -78.35537 | 7912 ft | 21 kts | 177° |
| 2026-05-07 17:13 | -0.14254 | -78.35438 | 7915 ft | 22 kts | 85° |
| 2026-05-07 17:14 | -0.14226 | -78.35364 | 7912 ft | 7 kts | 353° |
| 2026-05-07 17:14 | -0.14177 | -78.35370 | 7912 ft | 7 kts | 4° |
| 2026-05-07 17:14 | -0.14169 | -78.35370 | 7915 ft | 0 kts | 359° |
| 2026-05-07 17:14 | -0.14133 | -78.35371 | 7917 ft | 19 kts | 357° |
| 2026-05-07 17:15 | -0.13824 | -78.35385 | 7897 ft | 71 kts | 358° |
| 2026-05-07 17:15 | -0.13146 | -78.35413 | 7882 ft | 124 kts | 358° |
| 2026-05-07 17:15 | -0.12128 | -78.35456 | 7836 ft | 171 kts | 358° |
| 2026-05-07 17:15 | -0.10804 | -78.35508 | 8001 ft | 200 kts | 358° |
| 2026-05-07 17:16 | -0.09431 | -78.35730 | 8813 ft | 202 kts | 348° |
| 2026-05-07 17:16 | -0.08064 | -78.36151 | 9370 ft | 208 kts | 344° |
| 2026-05-07 17:16 | -0.06686 | -78.36631 | 9884 ft | 216 kts | 342° |
| 2026-05-07 17:16 | -0.05191 | -78.37147 | 10024 ft | 238 kts | 343° |
| 2026-05-07 17:17 | -0.03531 | -78.37701 | 10162 ft | 262 kts | 343° |
| 2026-05-07 17:17 | -0.01745 | -78.38288 | 10614 ft | 277 kts | 343° |
| 2026-05-07 17:17 | 0.00141 | -78.38899 | 10994 ft | 292 kts | 345° |
| 2026-05-07 17:17 | 0.02121 | -78.39534 | 11469 ft | 306 kts | 345° |
| 2026-05-07 17:18 | 0.04184 | -78.40192 | 11892 ft | 312 kts | 345° |
| 2026-05-07 17:18 | 0.06267 | -78.40857 | 12371 ft | 314 kts | 344° |
| 2026-05-07 17:18 | 0.08359 | -78.41525 | 12855 ft | 317 kts | 344° |
| 2026-05-07 17:18 | 0.10447 | -78.42189 | 13353 ft | 319 kts | 345° |
| 2026-05-07 17:19 | 0.12597 | -78.42863 | 13857 ft | 321 kts | 346° |
| 2026-05-07 17:19 | 0.14797 | -78.43042 | 14316 ft | 318 kts | 13° |
| 2026-05-07 17:19 | 0.16762 | -78.42181 | 14755 ft | 314 kts | 38° |
| 2026-05-07 17:19 | 0.18461 | -78.40816 | 15219 ft | 314 kts | 44° |
| 2026-05-07 17:20 | 0.20037 | -78.39308 | 15713 ft | 314 kts | 47° |
| 2026-05-07 17:20 | 0.21574 | -78.37747 | 16184 ft | 315 kts | 47° |
| 2026-05-07 17:20 | 0.23120 | -78.36180 | 16673 ft | 318 kts | 47° |
| 2026-05-07 17:20 | 0.24694 | -78.34624 | 17162 ft | 319 kts | 46° |
| 2026-05-07 17:21 | 0.26300 | -78.33079 | 17658 ft | 322 kts | 45° |
| 2026-05-07 17:21 | 0.27932 | -78.31539 | 18166 ft | 325 kts | 45° |
| 2026-05-07 17:21 | 0.29604 | -78.29979 | 18612 ft | 332 kts | 45° |
| 2026-05-07 17:21 | 0.31314 | -78.28388 | 18949 ft | 340 kts | 45° |
| 2026-05-07 17:22 | 0.33060 | -78.26766 | 19311 ft | 348 kts | 45° |
| 2026-05-07 17:22 | 0.34853 | -78.25099 | 19669 ft | 355 kts | 44° |
| 2026-05-07 17:22 | 0.36686 | -78.23401 | 20058 ft | 362 kts | 44° |
| 2026-05-07 17:22 | 0.38550 | -78.21670 | 20426 ft | 368 kts | 45° |
| 2026-05-07 17:23 | 0.40411 | -78.19936 | 20794 ft | 374 kts | 45° |
| 2026-05-07 17:23 | 0.42353 | -78.18129 | 21177 ft | 379 kts | 45° |
| 2026-05-07 17:23 | 0.44257 | -78.16358 | 21557 ft | 384 kts | 45° |
| 2026-05-07 17:23 | 0.46223 | -78.14531 | 21922 ft | 388 kts | 45° |
| 2026-05-07 17:24 | 0.48236 | -78.12658 | 22317 ft | 392 kts | 45° |
| 2026-05-07 17:24 | 0.50245 | -78.10857 | 22711 ft | 396 kts | 40° |
| 2026-05-07 17:24 | 0.52462 | -78.09198 | 23140 ft | 399 kts | 38° |
| 2026-05-07 17:24 | 0.54693 | -78.07542 | 23551 ft | 401 kts | 39° |
| 2026-05-07 17:25 | 0.56945 | -78.05871 | 23932 ft | 404 kts | 39° |
| 2026-05-07 17:25 | 0.59203 | -78.04191 | 24274 ft | 406 kts | 38° |
| 2026-05-07 17:25 | 0.61469 | -78.02500 | 24599 ft | 407 kts | 39° |
| 2026-05-07 17:25 | 0.63742 | -78.00809 | 24946 ft | 408 kts | 38° |
| 2026-05-07 17:26 | 0.65819 | -77.99263 | 25269 ft | 409 kts | 38° |
| 2026-05-07 17:26 | 0.68111 | -77.97556 | 25594 ft | 412 kts | 39° |
| 2026-05-07 17:26 | 0.70425 | -77.95834 | 25887 ft | 415 kts | 39° |
| 2026-05-07 17:26 | 0.72743 | -77.94105 | 26209 ft | 418 kts | 38° |
| 2026-05-07 17:27 | 0.75079 | -77.92361 | 26478 ft | 421 kts | 38° |
| 2026-05-07 17:27 | 0.77431 | -77.90607 | 26795 ft | 423 kts | 38° |
| 2026-05-07 17:27 | 0.79811 | -77.88839 | 27097 ft | 426 kts | 37° |
| 2026-05-07 17:27 | 0.82355 | -77.87296 | 27407 ft | 431 kts | 28° |
| 2026-05-07 17:28 | 0.85038 | -77.85953 | 27726 ft | 433 kts | 29° |
| 2026-05-07 17:28 | 0.87737 | -77.84599 | 28049 ft | 434 kts | 28° |
| 2026-05-07 17:28 | 0.90441 | -77.83238 | 28339 ft | 436 kts | 28° |
| 2026-05-07 17:28 | 0.93157 | -77.81871 | 28666 ft | 438 kts | 28° |
| 2026-05-07 17:29 | 0.95877 | -77.80499 | 29270 ft | 440 kts | 28° |
| 2026-05-07 17:29 | 0.98615 | -77.79117 | 29592 ft | 441 kts | 27° |
| 2026-05-07 17:29 | 1.01354 | -77.77734 | 29916 ft | 443 kts | 28° |
| 2026-05-07 17:29 | 1.04110 | -77.76344 | 30245 ft | 444 kts | 28° |
| 2026-05-07 17:30 | 1.06878 | -77.74951 | 30513 ft | 446 kts | 28° |
| 2026-05-07 17:30 | 1.09656 | -77.73555 | 30773 ft | 447 kts | 27° |
| 2026-05-07 17:30 | 1.12441 | -77.72156 | 31036 ft | 449 kts | 28° |
| 2026-05-07 17:30 | 1.15234 | -77.70750 | 31304 ft | 450 kts | 28° |
| 2026-05-07 17:31 | 1.17998 | -77.69356 | 31556 ft | 451 kts | 28° |
| 2026-05-07 17:31 | 1.20815 | -77.67935 | 31782 ft | 453 kts | 28° |
| 2026-05-07 17:31 | 1.23626 | -77.66518 | 32083 ft | 455 kts | 27° |
| 2026-05-07 17:31 | 1.26450 | -77.65094 | 32385 ft | 456 kts | 28° |
| 2026-05-07 17:32 | 1.29297 | -77.63661 | 32712 ft | 458 kts | 27° |
| 2026-05-07 17:32 | 1.32146 | -77.62227 | 33043 ft | 459 kts | 27° |
| 2026-05-07 17:32 | 1.34998 | -77.60791 | 33340 ft | 461 kts | 27° |
| 2026-05-07 17:32 | 1.36901 | -77.59832 | 33566 ft | 462 kts | 27° |
| 2026-05-07 17:33 | 1.40737 | -77.57902 | 33982 ft | 463 kts | 27° |
| 2026-05-07 17:33 | 1.43616 | -77.56454 | 34282 ft | 463 kts | 27° |
| 2026-05-07 17:33 | 1.46496 | -77.55004 | 34575 ft | 463 kts | 27° |
| 2026-05-07 17:33 | 1.49376 | -77.53553 | 34836 ft | 464 kts | 27° |
| 2026-05-07 17:34 | 1.52255 | -77.52101 | 35133 ft | 464 kts | 27° |
| 2026-05-07 17:34 | 1.55130 | -77.50652 | 35448 ft | 463 kts | 26° |
| 2026-05-07 17:34 | 1.58003 | -77.49203 | 35755 ft | 463 kts | 26° |
| 2026-05-07 17:34 | 1.60879 | -77.47750 | 36065 ft | 460 kts | 26° |
| 2026-05-07 17:35 | 1.63728 | -77.46308 | 36378 ft | 458 kts | 26° |
| 2026-05-07 17:35 | 1.66561 | -77.44877 | 36671 ft | 456 kts | 26° |
| 2026-05-07 17:35 | 1.69389 | -77.43450 | 36932 ft | 455 kts | 26° |
| 2026-05-07 17:35 | 1.72173 | -77.42048 | 36987 ft | 453 kts | 26° |
| 2026-05-07 17:36 | 1.77832 | -77.39204 | 36994 ft | 451 kts | 26° |
| 2026-05-07 17:36 | 1.83400 | -77.36399 | 36984 ft | 451 kts | 26° |
| 2026-05-07 17:37 | 1.89007 | -77.33573 | 36984 ft | 451 kts | 25° |
| 2026-05-07 17:37 | 1.94606 | -77.30749 | 36990 ft | 450 kts | 26° |
| 2026-05-07 17:38 | 2.00200 | -77.27933 | 36988 ft | 450 kts | 25° |
| 2026-05-07 17:38 | 2.05785 | -77.25114 | 36989 ft | 450 kts | 25° |
| 2026-05-07 17:39 | 2.11355 | -77.22302 | 36994 ft | 450 kts | 26° |
| 2026-05-07 17:39 | 2.16950 | -77.19484 | 36996 ft | 450 kts | 26° |
| 2026-05-07 17:40 | 2.22535 | -77.16667 | 36993 ft | 450 kts | 26° |
| 2026-05-07 17:40 | 2.28090 | -77.13865 | 36999 ft | 450 kts | 25° |
| 2026-05-07 17:41 | 2.33689 | -77.11039 | 36995 ft | 450 kts | 25° |
| 2026-05-07 17:41 | 2.39282 | -77.08216 | 36991 ft | 450 kts | 25° |
| 2026-05-07 17:42 | 2.44875 | -77.05399 | 36992 ft | 450 kts | 25° |
| 2026-05-07 17:42 | 2.50473 | -77.02579 | 36998 ft | 450 kts | 25° |
| 2026-05-07 17:43 | 2.56067 | -76.99756 | 36995 ft | 450 kts | 25° |
| 2026-05-07 17:43 | 2.61662 | -76.96928 | 36998 ft | 450 kts | 26° |
| 2026-05-07 17:44 | 2.67253 | -76.94098 | 37001 ft | 450 kts | 26° |
| 2026-05-07 17:44 | 2.72848 | -76.91269 | 37007 ft | 450 kts | 25° |
| 2026-05-07 17:45 | 2.78439 | -76.88452 | 37012 ft | 450 kts | 25° |
| 2026-05-07 17:45 | 2.84000 | -76.85646 | 37015 ft | 450 kts | 26° |
| 2026-05-07 17:46 | 2.89599 | -76.82828 | 37009 ft | 450 kts | 25° |
| 2026-05-07 17:46 | 2.95198 | -76.80002 | 37006 ft | 451 kts | 25° |
| 2026-05-07 17:47 | 3.00794 | -76.77167 | 37034 ft | 450 kts | 25° |
| 2026-05-07 17:47 | 3.06382 | -76.74337 | 37034 ft | 450 kts | 25° |
| 2026-05-07 17:48 | 3.11975 | -76.71516 | 37038 ft | 450 kts | 25° |
| 2026-05-07 17:48 | 3.17568 | -76.68690 | 37041 ft | 450 kts | 25° |
| 2026-05-07 17:49 | 3.23151 | -76.65868 | 37040 ft | 449 kts | 26° |
| 2026-05-07 17:49 | 3.28730 | -76.63049 | 37038 ft | 449 kts | 25° |
| 2026-05-07 17:50 | 3.34316 | -76.60231 | 37036 ft | 449 kts | 25° |
| 2026-05-07 17:50 | 3.39902 | -76.57413 | 37037 ft | 449 kts | 26° |
| 2026-05-07 17:51 | 3.45443 | -76.54608 | 37033 ft | 449 kts | 26° |
| 2026-05-07 17:51 | 3.51018 | -76.51783 | 37038 ft | 449 kts | 26° |
| 2026-05-07 17:52 | 3.56600 | -76.48963 | 37048 ft | 450 kts | 25° |
| 2026-05-07 17:52 | 3.62187 | -76.46137 | 37042 ft | 450 kts | 25° |
| 2026-05-07 17:53 | 3.67790 | -76.43313 | 37041 ft | 451 kts | 25° |
| 2026-05-07 17:53 | 3.73393 | -76.40478 | 37044 ft | 450 kts | 26° |
| 2026-05-07 17:54 | 3.78036 | -76.38122 | 37057 ft | 449 kts | 26° |
| 2026-05-07 17:54 | 3.83609 | -76.35300 | 37078 ft | 449 kts | 26° |
| 2026-05-07 17:55 | 3.89177 | -76.32484 | 37066 ft | 448 kts | 26° |
| 2026-05-07 17:55 | 3.94747 | -76.29662 | 37063 ft | 448 kts | 26° |
| 2026-05-07 17:56 | 3.99910 | -76.27048 | 37071 ft | 448 kts | 26° |
| 2026-05-07 17:56 | 4.05394 | -76.24271 | 37065 ft | 446 kts | 26° |
| 2026-05-07 17:57 | 4.10920 | -76.21447 | 37096 ft | 445 kts | 27° |
| 2026-05-07 17:57 | 4.16280 | -76.18449 | 37048 ft | 444 kts | 29° |
| 2026-05-07 17:58 | 4.21614 | -76.15340 | 37046 ft | 443 kts | 29° |
| 2026-05-07 17:58 | 4.26954 | -76.12279 | 37048 ft | 442 kts | 28° |
| 2026-05-07 17:59 | 4.32312 | -76.09262 | 37032 ft | 441 kts | 27° |
| 2026-05-07 17:59 | 4.37670 | -76.06266 | 37035 ft | 441 kts | 27° |
| 2026-05-07 18:00 | 4.43025 | -76.03262 | 37024 ft | 441 kts | 28° |
| 2026-05-07 18:00 | 4.48379 | -76.00263 | 37010 ft | 441 kts | 27° |
| 2026-05-07 18:01 | 4.51070 | -75.98761 | 36498 ft | 446 kts | 28° |
| 2026-05-07 18:01 | 4.53792 | -75.97243 | 35514 ft | 459 kts | 28° |
| 2026-05-07 18:01 | 4.56562 | -75.95696 | 35229 ft | 454 kts | 28° |
| 2026-05-07 18:01 | 4.59353 | -75.94136 | 34723 ft | 453 kts | 28° |
| 2026-05-07 18:02 | 4.64814 | -75.91084 | 33726 ft | 452 kts | 28° |
| 2026-05-07 18:02 | 4.67561 | -75.89548 | 33244 ft | 450 kts | 28° |
| 2026-05-07 18:02 | 4.70289 | -75.88021 | 32759 ft | 448 kts | 28° |
| 2026-05-07 18:03 | 4.73009 | -75.86499 | 32270 ft | 446 kts | 28° |
| 2026-05-07 18:03 | 4.75707 | -75.84985 | 31781 ft | 444 kts | 28° |
| 2026-05-07 18:03 | 4.78433 | -75.83556 | 31291 ft | 442 kts | 22° |
| 2026-05-07 18:03 | 4.81308 | -75.82500 | 30796 ft | 440 kts | 18° |
| 2026-05-07 18:04 | 4.84199 | -75.81497 | 30303 ft | 438 kts | 19° |
| 2026-05-07 18:04 | 4.87073 | -75.80499 | 29754 ft | 436 kts | 19° |
| 2026-05-07 18:04 | 4.89920 | -75.79510 | 29273 ft | 432 kts | 19° |
| 2026-05-07 18:04 | 4.92745 | -75.78529 | 28685 ft | 428 kts | 19° |
| 2026-05-07 18:05 | 4.95543 | -75.77553 | 28269 ft | 424 kts | 19° |
| 2026-05-07 18:05 | 4.98316 | -75.76584 | 27842 ft | 420 kts | 19° |
| 2026-05-07 18:05 | 5.01063 | -75.75624 | 27423 ft | 416 kts | 19° |
| 2026-05-07 18:05 | 5.03790 | -75.74670 | 27006 ft | 413 kts | 20° |
| 2026-05-07 18:06 | 5.06488 | -75.73723 | 26592 ft | 409 kts | 20° |
| 2026-05-07 18:06 | 5.09168 | -75.72782 | 26175 ft | 407 kts | 20° |
| 2026-05-07 18:06 | 5.11828 | -75.71849 | 25759 ft | 404 kts | 20° |
| 2026-05-07 18:06 | 5.14479 | -75.70921 | 25322 ft | 403 kts | 20° |
| 2026-05-07 18:07 | 5.17087 | -75.70013 | 24882 ft | 401 kts | 20° |
| 2026-05-07 18:07 | 5.19721 | -75.69097 | 24411 ft | 401 kts | 20° |
| 2026-05-07 18:07 | 5.22350 | -75.68182 | 23944 ft | 397 kts | 20° |
| 2026-05-07 18:07 | 5.24940 | -75.67279 | 23451 ft | 392 kts | 21° |
| 2026-05-07 18:08 | 5.27495 | -75.66389 | 22950 ft | 385 kts | 21° |
| 2026-05-07 18:08 | 5.30006 | -75.65516 | 22482 ft | 378 kts | 21° |
| 2026-05-07 18:08 | 5.32464 | -75.64662 | 22004 ft | 370 kts | 21° |
| 2026-05-07 18:08 | 5.34873 | -75.63823 | 21554 ft | 364 kts | 21° |
| 2026-05-07 18:09 | 5.37244 | -75.62996 | 21118 ft | 357 kts | 21° |
| 2026-05-07 18:09 | 5.39578 | -75.62181 | 20695 ft | 354 kts | 21° |
| 2026-05-07 18:09 | 5.41804 | -75.61160 | 20248 ft | 351 kts | 30° |
| 2026-05-07 18:09 | 5.43960 | -75.60013 | 19821 ft | 351 kts | 29° |
| 2026-05-07 18:10 | 5.46114 | -75.58869 | 19376 ft | 350 kts | 29° |
| 2026-05-07 18:10 | 5.48264 | -75.57730 | 18942 ft | 349 kts | 29° |
| 2026-05-07 18:10 | 5.50406 | -75.56598 | 18510 ft | 347 kts | 29° |
| 2026-05-07 18:10 | 5.52547 | -75.55468 | 18056 ft | 347 kts | 29° |
| 2026-05-07 18:11 | 5.54676 | -75.54342 | 17516 ft | 346 kts | 29° |
| 2026-05-07 18:11 | 5.56101 | -75.53588 | 17003 ft | 351 kts | 29° |
| 2026-05-07 18:11 | 5.58981 | -75.52061 | 16389 ft | 348 kts | 30° |
| 2026-05-07 18:11 | 5.61108 | -75.50935 | 15949 ft | 344 kts | 30° |
| 2026-05-07 18:12 | 5.63216 | -75.49820 | 15520 ft | 341 kts | 30° |
| 2026-05-07 18:12 | 5.65307 | -75.48711 | 15102 ft | 338 kts | 30° |
| 2026-05-07 18:12 | 5.67382 | -75.47613 | 14688 ft | 335 kts | 30° |
| 2026-05-07 18:12 | 5.69437 | -75.46525 | 14270 ft | 333 kts | 30° |
| 2026-05-07 18:13 | 5.71468 | -75.45448 | 14038 ft | 326 kts | 30° |
| 2026-05-07 18:13 | 5.73432 | -75.44408 | 13908 ft | 310 kts | 30° |
| 2026-05-07 18:13 | 5.75266 | -75.43442 | 13797 ft | 288 kts | 31° |
| 2026-05-07 18:13 | 5.77026 | -75.42595 | 13665 ft | 277 kts | 22° |
| 2026-05-07 18:14 | 5.78898 | -75.42220 | 13449 ft | 274 kts | 5° |
| 2026-05-07 18:14 | 5.80820 | -75.42201 | 13013 ft | 276 kts | 2° |
| 2026-05-07 18:14 | 5.82729 | -75.42202 | 12832 ft | 269 kts | 2° |
| 2026-05-07 18:14 | 5.84570 | -75.42207 | 12451 ft | 272 kts | 3° |
| 2026-05-07 18:15 | 5.86513 | -75.42164 | 11994 ft | 276 kts | 5° |
| 2026-05-07 18:15 | 5.88389 | -75.42128 | 11828 ft | 269 kts | 2° |
| 2026-05-07 18:15 | 5.90264 | -75.42137 | 11457 ft | 270 kts | 2° |
| 2026-05-07 18:15 | 5.92130 | -75.42154 | 11126 ft | 265 kts | 4° |
| 2026-05-07 18:16 | 5.93983 | -75.42167 | 10815 ft | 260 kts | 4° |
| 2026-05-07 18:16 | 5.95737 | -75.42179 | 10515 ft | 251 kts | 2° |
| 2026-05-07 18:16 | 5.97474 | -75.42190 | 10228 ft | 248 kts | 2° |
| 2026-05-07 18:16 | 5.99171 | -75.42200 | 9971 ft | 240 kts | 2° |
| 2026-05-07 18:17 | 6.00821 | -75.42211 | 9706 ft | 236 kts | 3° |
| 2026-05-07 18:17 | 6.02434 | -75.42222 | 9399 ft | 227 kts | 2° |
| 2026-05-07 18:17 | 6.03981 | -75.42232 | 9136 ft | 216 kts | 2° |
| 2026-05-07 18:17 | 6.05453 | -75.42242 | 8885 ft | 208 kts | 1° |
| 2026-05-07 18:18 | 6.06879 | -75.42251 | 8645 ft | 202 kts | 3° |
| 2026-05-07 18:18 | 6.08230 | -75.42260 | 8401 ft | 184 kts | 2° |
| 2026-05-07 18:18 | 6.09456 | -75.42268 | 8173 ft | 170 kts | 1° |
| 2026-05-07 18:18 | 6.10603 | -75.42275 | 7960 ft | 161 kts | 1° |
| 2026-05-07 18:19 | 6.11719 | -75.42279 | 7688 ft | 158 kts | 2° |
| 2026-05-07 18:19 | 6.12807 | -75.42288 | 7468 ft | 154 kts | 1° |
| 2026-05-07 18:19 | 6.13874 | -75.42294 | 7256 ft | 153 kts | 1° |
| 2026-05-07 18:19 | 6.14934 | -75.42297 | 7024 ft | 151 kts | 2° |
| 2026-05-07 18:20 | 6.15919 | -75.42306 | 6965 ft | 121 kts | 358° |
| 2026-05-07 18:20 | 6.16589 | -75.42312 | 6977 ft | 72 kts | 359° |
| 2026-05-07 18:20 | 6.16947 | -75.42331 | 6987 ft | 44 kts | 344° |
| 2026-05-07 18:20 | 6.17123 | -75.42422 | 6989 ft | 21 kts | 330° |
| 2026-05-07 18:21 | 6.17185 | -75.42515 | 6990 ft | 16 kts | 266° |
| 2026-05-07 18:21 | 6.17154 | -75.42618 | 6987 ft | 16 kts | 198° |
| 2026-05-07 18:21 | 6.17042 | -75.42640 | 6985 ft | 18 kts | 224° |
| 2026-05-07 18:21 | 6.17035 | -75.42718 | 6982 ft | 0 kts | 304° |